Time;durP1;ratioP1;P1;durP2;ratioP2;P2;SDS_P1;SDS_P2;PMS_P1;PMS_P2;Temp;Humidity;BMP_temperature;BMP_pressure;BME280_temperature;BME280_humidity;BME280_pressure;Samples;Min_cycle;Max_cycle;Signal;HPM_P1;HPM_P2
2023/03/05 00:01:34;;;;;;;0.40;0.20;;;;;;;-128.00;-1.00;-1.00;102662;1255;1011377;-49
2023/03/05 00:04:03;;;;;;;0.20;0.00;;;;;;;-128.00;-1.00;-1.00;103200;1253;1004928;-47
2023/03/05 00:06:31;;;;;;;0.80;0.10;;;;;;;-128.00;-1.00;-1.00;102970;1256;1013460;-47
2023/03/05 00:08:59;;;;;;;0.30;0.10;;;;;;;-128.00;-1.00;-1.00;103027;1255;1012984;-49
2023/03/05 00:11:28;;;;;;;3.80;0.10;;;;;;;-128.00;-1.00;-1.00;102603;1257;1010426;-48
2023/03/05 00:13:57;;;;;;;0.30;0.20;;;;;;;-128.00;-1.00;-1.00;103026;1256;1011099;-49
2023/03/05 00:16:26;;;;;;;0.50;0.10;;;;;;;-128.00;-1.00;-1.00;102956;1256;1013639;-47
2023/03/05 00:18:54;;;;;;;0.50;0.10;;;;;;;-128.00;-1.00;-1.00;103154;1254;1013433;-48
2023/03/05 00:21:26;;;;;;;0.30;0.10;;;;;;;-128.00;-1.00;-1.00;102750;1254;1012539;-47
2023/03/05 00:24:00;;;;;;;0.50;0.10;;;;;;;-128.00;-1.00;-1.00;102766;1256;1010373;-47
2023/03/05 00:26:29;;;;;;;0.20;0.10;;;;;;;-128.00;-1.00;-1.00;102977;1254;1013776;-48
2023/03/05 00:28:57;;;;;;;0.40;0.20;;;;;;;-128.00;-1.00;-1.00;102840;1256;1012826;-47
2023/03/05 00:31:29;;;;;;;1.30;0.10;;;;;;;-128.00;-1.00;-1.00;102646;1256;1006396;-46
2023/03/05 00:34:00;;;;;;;0.60;0.10;;;;;;;-128.00;-1.00;-1.00;102747;1253;1013424;-47
2023/03/05 00:36:28;;;;;;;2.60;0.10;;;;;;;-128.00;-1.00;-1.00;103043;1254;1010375;-48
2023/03/05 00:38:57;;;;;;;0.30;0.10;;;;;;;-128.00;-1.00;-1.00;103226;1257;1011788;-48
2023/03/05 00:41:25;;;;;;;0.30;0.10;;;;;;;-128.00;-1.00;-1.00;102876;1252;1012487;-46
2023/03/05 00:43:54;;;;;;;0.20;0.00;;;;;;;-128.00;-1.00;-1.00;102583;1254;1012687;-46
2023/03/05 00:46:23;;;;;;;3.10;0.10;;;;;;;-128.00;-1.00;-1.00;102799;1253;1013105;-47
2023/03/05 00:48:54;;;;;;;0.40;0.10;;;;;;;-128.00;-1.00;-1.00;102945;1254;1010089;-48
2023/03/05 00:51:23;;;;;;;1.00;0.10;;;;;;;-128.00;-1.00;-1.00;102786;1252;1013196;-45
2023/03/05 00:53:51;;;;;;;0.20;0.00;;;;;;;-128.00;-1.00;-1.00;102771;1253;1012902;-45
2023/03/05 00:56:19;;;;;;;0.20;0.00;;;;;;;-128.00;-1.00;-1.00;102960;1256;1013275;-46
2023/03/05 00:58:47;;;;;;;0.80;0.10;;;;;;;-128.00;-1.00;-1.00;102884;1255;1006761;-47
2023/03/05 01:01:15;;;;;;;0.30;0.10;;;;;;;-128.00;-1.00;-1.00;102619;1254;1009767;-48
2023/03/05 01:03:44;;;;;;;1.00;0.10;;;;;;;-128.00;-1.00;-1.00;102789;1256;1011243;-47
2023/03/05 01:06:15;;;;;;;2.50;0.20;;;;;;;-128.00;-1.00;-1.00;102844;1254;1014424;-45
2023/03/05 01:08:45;;;;;;;0.40;0.10;;;;;;;-128.00;-1.00;-1.00;102866;1256;1013526;-44
2023/03/05 01:11:13;;;;;;;2.30;0.70;;;;;;;-128.00;-1.00;-1.00;102955;1254;1012781;-48
2023/03/05 01:13:41;;;;;;;1.00;0.20;;;;;;;-128.00;-1.00;-1.00;102889;1254;1003573;-47
2023/03/05 01:16:10;;;;;;;0.40;0.10;;;;;;;-128.00;-1.00;-1.00;102768;1256;1010708;-48
2023/03/05 01:18:38;;;;;;;1.60;0.20;;;;;;;-128.00;-1.00;-1.00;102794;1256;1013186;-48
2023/03/05 01:21:07;;;;;;;1.00;0.10;;;;;;;-128.00;-1.00;-1.00;103176;1257;1012991;-48
2023/03/05 01:23:41;;;;;;;1.20;0.10;;;;;;;-128.00;-1.00;-1.00;102632;1254;1012459;-46
2023/03/05 01:26:09;;;;;;;1.40;0.10;;;;;;;-128.00;-1.00;-1.00;102923;1252;1002692;-48
2023/03/05 01:28:38;;;;;;;1.10;0.00;;;;;;;-128.00;-1.00;-1.00;102697;1256;1002444;-46
2023/03/05 01:31:10;;;;;;;1.60;0.10;;;;;;;-128.00;-1.00;-1.00;103102;1256;1012805;-45
2023/03/05 01:33:40;;;;;;;0.50;0.10;;;;;;;-128.00;-1.00;-1.00;102713;1256;1012217;-46
2023/03/05 01:36:14;;;;;;;0.50;0.10;;;;;;;-128.00;-1.00;-1.00;102659;1253;1012603;-45
2023/03/05 01:38:45;;;;;;;0.40;0.10;;;;;;;-128.00;-1.00;-1.00;102823;1253;1009906;-43
2023/03/05 01:41:14;;;;;;;0.30;0.10;;;;;;;-128.00;-1.00;-1.00;102957;1254;1010785;-44
2023/03/05 01:43:45;;;;;;;0.30;0.10;;;;;;;-128.00;-1.00;-1.00;102757;1256;1012655;-47
2023/03/05 01:46:15;;;;;;;0.20;0.10;;;;;;;-128.00;-1.00;-1.00;102704;1256;1012360;-47
2023/03/05 01:49:07;;;;;;;1.80;0.10;;;;;;;-128.00;-1.00;-1.00;102508;1258;1013436;-47
2023/03/05 01:51:43;;;;;;;1.10;0.00;;;;;;;-128.00;-1.00;-1.00;102601;1253;1012701;-47
2023/03/05 01:54:14;;;;;;;1.00;0.20;;;;;;;-128.00;-1.00;-1.00;102864;1254;1010477;-47
2023/03/05 01:56:43;;;;;;;1.00;0.20;;;;;;;-128.00;-1.00;-1.00;103095;1252;1014109;-46
2023/03/05 01:59:11;;;;;;;1.20;0.20;;;;;;;-128.00;-1.00;-1.00;102340;1259;1012313;-48
2023/03/05 02:01:45;;;;;;;0.70;0.10;;;;;;;-128.00;-1.00;-1.00;102545;1257;1013118;-48
2023/03/05 02:04:15;;;;;;;1.80;0.10;;;;;;;-128.00;-1.00;-1.00;104042;1253;1011011;-46
2023/03/05 02:06:44;;;;;;;0.50;0.10;;;;;;;-128.00;-1.00;-1.00;102522;1256;1011190;-48
2023/03/05 02:09:12;;;;;;;1.00;0.10;;;;;;;-128.00;-1.00;-1.00;102561;1259;1004102;-47
2023/03/05 02:11:43;;;;;;;0.30;0.10;;;;;;;-128.00;-1.00;-1.00;102694;1256;1015581;-45
2023/03/05 02:14:11;;;;;;;0.30;0.20;;;;;;;-128.00;-1.00;-1.00;102478;1253;1012292;-47
2023/03/05 02:16:39;;;;;;;1.20;0.30;;;;;;;-128.00;-1.00;-1.00;102418;1252;1002955;-45
2023/03/05 02:19:15;;;;;;;0.80;0.10;;;;;;;-128.00;-1.00;-1.00;103028;1252;1011001;-46
2023/03/05 02:21:45;;;;;;;0.40;0.20;;;;;;;-128.00;-1.00;-1.00;102756;1256;1013221;-47
2023/03/05 02:24:14;;;;;;;0.40;0.10;;;;;;;-128.00;-1.00;-1.00;102569;1256;1012742;-46
2023/03/05 02:26:43;;;;;;;0.70;0.10;;;;;;;-128.00;-1.00;-1.00;102679;1256;1013616;-47
2023/03/05 02:29:17;;;;;;;0.90;0.10;;;;;;;-128.00;-1.00;-1.00;103028;1253;1009849;-47
2023/03/05 02:31:47;;;;;;;0.30;0.10;;;;;;;-128.00;-1.00;-1.00;102701;1253;1011124;-46
2023/03/05 02:34:15;;;;;;;1.40;0.20;;;;;;;-128.00;-1.00;-1.00;103018;1253;1002466;-46
2023/03/05 02:36:43;;;;;;;0.50;0.10;;;;;;;-128.00;-1.00;-1.00;102409;1256;1002451;-44
2023/03/05 02:39:12;;;;;;;0.60;0.10;;;;;;;-128.00;-1.00;-1.00;102663;1256;1012881;-46
2023/03/05 02:41:42;;;;;;;2.00;0.10;;;;;;;-128.00;-1.00;-1.00;102268;1253;1011080;-46
2023/03/05 02:44:11;;;;;;;0.90;0.10;;;;;;;-128.00;-1.00;-1.00;102803;1257;1011383;-45
2023/03/05 02:46:41;;;;;;;2.10;1.30;;;;;;;-128.00;-1.00;-1.00;102611;1256;1013134;-47
2023/03/05 02:49:09;;;;;;;0.40;0.10;;;;;;;-128.00;-1.00;-1.00;102479;1257;1003649;-46
2023/03/05 02:51:38;;;;;;;0.40;0.10;;;;;;;-128.00;-1.00;-1.00;102705;1258;1013219;-42
2023/03/05 02:54:06;;;;;;;0.70;0.10;;;;;;;-128.00;-1.00;-1.00;102624;1256;1010327;-45
2023/03/05 02:56:37;;;;;;;1.80;0.10;;;;;;;-128.00;-1.00;-1.00;102947;1256;1011464;-46
2023/03/05 02:59:05;;;;;;;0.80;0.00;;;;;;;-128.00;-1.00;-1.00;102483;1256;1012779;-46
2023/03/05 03:01:34;;;;;;;1.90;0.10;;;;;;;-128.00;-1.00;-1.00;102382;1253;1014917;-48
2023/03/05 03:04:03;;;;;;;0.60;0.20;;;;;;;-128.00;-1.00;-1.00;102799;1254;1012882;-45
2023/03/05 03:06:33;;;;;;;1.60;0.20;;;;;;;-128.00;-1.00;-1.00;102475;1256;1010107;-45
2023/03/05 03:09:01;;;;;;;0.20;0.10;;;;;;;-128.00;-1.00;-1.00;102435;1257;1002897;-47
2023/03/05 03:11:30;;;;;;;0.70;0.20;;;;;;;-128.00;-1.00;-1.00;102713;1255;1012739;-44
2023/03/05 03:13:59;;;;;;;0.30;0.10;;;;;;;-128.00;-1.00;-1.00;102592;1259;1013166;-45
2023/03/05 03:16:28;;;;;;;0.30;0.10;;;;;;;-128.00;-1.00;-1.00;103097;1257;1012787;-45
2023/03/05 03:18:56;;;;;;;0.20;0.10;;;;;;;-128.00;-1.00;-1.00;103033;1258;1002252;-46
2023/03/05 03:21:25;;;;;;;0.50;0.10;;;;;;;-128.00;-1.00;-1.00;102897;1253;1003760;-48
2023/03/05 03:23:53;;;;;;;0.20;0.00;;;;;;;-128.00;-1.00;-1.00;102393;1254;1013101;-46
2023/03/05 03:26:21;;;;;;;0.90;0.10;;;;;;;-128.00;-1.00;-1.00;102536;1253;1013093;-46
2023/03/05 03:28:54;;;;;;;0.20;0.10;;;;;;;-128.00;-1.00;-1.00;102657;1254;1012541;-46
2023/03/05 03:31:23;;;;;;;0.90;0.20;;;;;;;-128.00;-1.00;-1.00;103308;1256;1002382;-47
2023/03/05 03:33:51;;;;;;;0.30;0.10;;;;;;;-128.00;-1.00;-1.00;102637;1256;1011252;-46
2023/03/05 03:36:19;;;;;;;0.30;0.10;;;;;;;-128.00;-1.00;-1.00;102592;1254;1014679;-45
2023/03/05 03:38:47;;;;;;;1.30;0.10;;;;;;;-128.00;-1.00;-1.00;102996;1255;1002882;-46
2023/03/05 03:41:15;;;;;;;1.40;0.10;;;;;;;-128.00;-1.00;-1.00;102857;1254;1013367;-48
2023/03/05 03:43:43;;;;;;;0.70;0.10;;;;;;;-128.00;-1.00;-1.00;103017;1256;1002804;-48
2023/03/05 03:46:16;;;;;;;0.30;0.10;;;;;;;-128.00;-1.00;-1.00;102761;1256;1010804;-47
2023/03/05 03:48:48;;;;;;;0.30;0.10;;;;;;;-128.00;-1.00;-1.00;103041;1256;1012737;-47
2023/03/05 03:51:17;;;;;;;2.30;0.30;;;;;;;-128.00;-1.00;-1.00;102712;1256;1012492;-43
2023/03/05 03:53:45;;;;;;;0.80;0.10;;;;;;;-128.00;-1.00;-1.00;103100;1256;1002760;-47
2023/03/05 03:56:16;;;;;;;2.80;0.10;;;;;;;-128.00;-1.00;-1.00;102965;1256;1010526;-46
2023/03/05 03:58:44;;;;;;;0.30;0.20;;;;;;;-128.00;-1.00;-1.00;102777;1256;1002732;-45
2023/03/05 04:01:12;;;;;;;2.40;0.20;;;;;;;-128.00;-1.00;-1.00;102719;1253;1002962;-44
2023/03/05 04:03:41;;;;;;;0.10;0.00;;;;;;;-128.00;-1.00;-1.00;105446;1256;1013634;-44
2023/03/05 04:06:09;;;;;;;0.50;0.10;;;;;;;-128.00;-1.00;-1.00;102909;1254;1003600;-47
2023/03/05 04:08:38;;;;;;;0.30;0.10;;;;;;;-128.00;-1.00;-1.00;102673;1256;1010592;-46
2023/03/05 04:11:07;;;;;;;1.60;0.10;;;;;;;-128.00;-1.00;-1.00;102535;1254;1011265;-45
2023/03/05 04:13:35;;;;;;;0.50;0.10;;;;;;;-128.00;-1.00;-1.00;102569;1256;1003582;-46
2023/03/05 04:16:08;;;;;;;0.80;0.00;;;;;;;-128.00;-1.00;-1.00;102709;1256;1012529;-46
2023/03/05 04:18:37;;;;;;;1.20;0.60;;;;;;;-128.00;-1.00;-1.00;102967;1253;1012344;-48
2023/03/05 04:21:05;;;;;;;0.20;0.10;;;;;;;-128.00;-1.00;-1.00;102471;1254;1004462;-42
2023/03/05 04:23:33;;;;;;;0.60;0.20;;;;;;;-128.00;-1.00;-1.00;102789;1256;1011743;-47
2023/03/05 04:26:01;;;;;;;0.60;0.10;;;;;;;-128.00;-1.00;-1.00;102659;1254;1002579;-45
2023/03/05 04:28:30;;;;;;;0.60;0.10;;;;;;;-128.00;-1.00;-1.00;102795;1256;1013772;-45
2023/03/05 04:30:58;;;;;;;0.40;0.10;;;;;;;-128.00;-1.00;-1.00;102113;1256;1003140;-45
2023/03/05 04:33:27;;;;;;;0.40;0.10;;;;;;;-128.00;-1.00;-1.00;104650;1252;1010055;-44
2023/03/05 04:35:56;;;;;;;0.40;0.10;;;;;;;-128.00;-1.00;-1.00;102834;1253;1003045;-44
2023/03/05 04:38:27;;;;;;;0.20;0.10;;;;;;;-128.00;-1.00;-1.00;102845;1256;1012511;-44
2023/03/05 04:40:55;;;;;;;0.60;0.20;;;;;;;-128.00;-1.00;-1.00;102805;1254;1163766;-46
2023/03/05 04:45:00;;;;;;;0.70;0.20;;;;;;;-102.89;16.63;20772.03;99862;1291;1002817;-46
2023/03/05 04:47:28;;;;;;;0.20;0.10;;;;;;;-128.00;-1.00;-1.00;103190;1269;1011645;-45
2023/03/05 04:49:56;;;;;;;1.60;0.20;;;;;;;-128.00;-1.00;-1.00;101854;1268;1002579;-45
2023/03/05 04:52:24;;;;;;;0.70;0.20;;;;;;;-128.00;-1.00;-1.00;105538;1267;1002927;-45
2023/03/05 04:54:53;;;;;;;1.60;0.20;;;;;;;-128.00;-1.00;-1.00;103562;1267;1002777;-45
2023/03/05 04:57:21;;;;;;;0.40;0.20;;;;;;;-128.00;-1.00;-1.00;101683;1271;1012826;-43
2023/03/05 04:59:50;;;;;;;2.00;0.20;;;;;;;-128.00;-1.00;-1.00;101565;1268;1011259;-44
2023/03/05 05:02:20;;;;;;;1.00;0.10;;;;;;;-128.00;-1.00;-1.00;101571;1265;1011114;-44
2023/03/05 05:04:52;;;;;;;1.10;0.20;;;;;;;-128.00;-1.00;-1.00;102598;1268;1013395;-45
2023/03/05 05:07:20;;;;;;;0.30;0.10;;;;;;;-128.00;-1.00;-1.00;101907;1268;1013011;-43
2023/03/05 05:09:48;;;;;;;0.30;0.10;;;;;;;-128.00;-1.00;-1.00;101426;1265;1002242;-45
2023/03/05 05:12:16;;;;;;;0.10;0.00;;;;;;;-128.00;-1.00;-1.00;101708;1268;1002822;-45
2023/03/05 05:14:46;;;;;;;1.30;0.10;;;;;;;-128.00;-1.00;-1.00;101582;1265;1011054;-45
2023/03/05 05:17:15;;;;;;;3.60;2.00;;;;;;;-128.00;-1.00;-1.00;102574;1265;1012965;-46
2023/03/05 05:19:44;;;;;;;1.40;0.10;;;;;;;-128.00;-1.00;-1.00;101559;1268;1013445;-45
2023/03/05 05:22:12;;;;;;;0.20;0.10;;;;;;;-128.00;-1.00;-1.00;101920;1268;1013313;-44
2023/03/05 05:24:40;;;;;;;0.10;0.00;;;;;;;-128.00;-1.00;-1.00;101621;1268;1010672;-45
2023/03/05 05:27:10;;;;;;;0.30;0.00;;;;;;;-128.00;-1.00;-1.00;101558;1265;1017083;-46
2023/03/05 05:29:38;;;;;;;1.30;0.10;;;;;;;-128.00;-1.00;-1.00;102113;1268;1013489;-46
2023/03/05 05:32:10;;;;;;;0.30;0.10;;;;;;;-128.00;-1.00;-1.00;101371;1271;1012463;-45
2023/03/05 05:34:39;;;;;;;0.90;0.10;;;;;;;-128.00;-1.00;-1.00;104510;1268;1012977;-46
2023/03/05 05:37:07;;;;;;;0.30;0.10;;;;;;;-128.00;-1.00;-1.00;101866;1265;1010939;-44
2023/03/05 05:39:37;;;;;;;1.00;0.10;;;;;;;-128.00;-1.00;-1.00;101722;1265;1011737;-46
2023/03/05 05:42:05;;;;;;;0.30;0.10;;;;;;;-128.00;-1.00;-1.00;102130;1268;1003383;-46
2023/03/05 05:44:38;;;;;;;0.30;0.10;;;;;;;-128.00;-1.00;-1.00;101544;1268;1013336;-45
2023/03/05 05:47:06;;;;;;;0.50;0.10;;;;;;;-128.00;-1.00;-1.00;101747;1268;1002804;-46
2023/03/05 05:49:34;;;;;;;2.90;0.10;;;;;;;-128.00;-1.00;-1.00;101733;1268;1002801;-45
2023/03/05 05:52:03;;;;;;;0.20;0.10;;;;;;;-128.00;-1.00;-1.00;101715;1265;1002986;-47
2023/03/05 05:54:31;;;;;;;1.20;0.20;;;;;;;-128.00;-1.00;-1.00;101910;1265;1012494;-46
2023/03/05 05:56:59;;;;;;;1.80;0.10;;;;;;;-128.00;-1.00;-1.00;101841;1268;1012237;-46
2023/03/05 05:59:28;;;;;;;2.40;0.10;;;;;;;-128.00;-1.00;-1.00;102045;1268;1013124;-45
2023/03/05 06:01:56;;;;;;;0.50;0.10;;;;;;;-128.00;-1.00;-1.00;101802;1265;1003392;-46
2023/03/05 06:04:24;;;;;;;0.40;0.10;;;;;;;-128.00;-1.00;-1.00;101682;1269;1002767;-45
2023/03/05 06:06:52;;;;;;;0.40;0.10;;;;;;;-128.00;-1.00;-1.00;101909;1270;1013174;-45
2023/03/05 06:09:20;;;;;;;2.20;0.10;;;;;;;-128.00;-1.00;-1.00;102150;1265;1004400;-45
2023/03/05 06:11:48;;;;;;;3.10;0.20;;;;;;;-128.00;-1.00;-1.00;101437;1265;1002753;-47
2023/03/05 06:14:16;;;;;;;1.40;0.20;;;;;;;-128.00;-1.00;-1.00;101407;1265;1011797;-47
2023/03/05 06:16:45;;;;;;;0.50;0.10;;;;;;;-128.00;-1.00;-1.00;101419;1269;1011466;-47
2023/03/05 06:19:14;;;;;;;0.50;0.10;;;;;;;-128.00;-1.00;-1.00;101791;1266;1002807;-46
2023/03/05 06:21:44;;;;;;;0.30;0.10;;;;;;;-128.00;-1.00;-1.00;101648;1265;1012693;-46
2023/03/05 06:24:12;;;;;;;0.30;0.10;;;;;;;-128.00;-1.00;-1.00;101749;1268;1003299;-46
2023/03/05 06:26:42;;;;;;;0.40;0.40;;;;;;;-128.00;-1.00;-1.00;101633;1265;1010856;-47
2023/03/05 06:29:11;;;;;;;0.30;0.10;;;;;;;-128.00;-1.00;-1.00;101685;1265;1014098;-47
2023/03/05 06:31:39;;;;;;;0.70;0.10;;;;;;;-128.00;-1.00;-1.00;102432;1265;1002782;-47
2023/03/05 06:34:08;;;;;;;0.40;0.20;;;;;;;-128.00;-1.00;-1.00;101664;1266;1013413;-47
2023/03/05 06:36:37;;;;;;;0.30;0.10;;;;;;;-128.00;-1.00;-1.00;103208;1269;1013298;-46
2023/03/05 06:39:05;;;;;;;0.80;0.10;;;;;;;-128.00;-1.00;-1.00;101750;1265;1010402;-47
2023/03/05 06:41:33;;;;;;;1.00;0.20;;;;;;;-128.00;-1.00;-1.00;105676;1265;1002703;-46
2023/03/05 06:44:02;;;;;;;2.90;0.10;;;;;;;-128.00;-1.00;-1.00;103414;1265;1013132;-47
2023/03/05 06:46:32;;;;;;;1.50;0.10;;;;;;;-128.00;-1.00;-1.00;101520;1270;1012968;-46
2023/03/05 06:49:01;;;;;;;1.50;0.20;;;;;;;-128.00;-1.00;-1.00;102038;1265;1012279;-46
2023/03/05 06:51:31;;;;;;;1.40;0.30;;;;;;;-128.00;-1.00;-1.00;102091;1270;1011316;-47
2023/03/05 06:54:02;;;;;;;0.50;0.10;;;;;;;-128.00;-1.00;-1.00;101962;1265;1011872;-47
2023/03/05 06:56:30;;;;;;;1.20;0.20;;;;;;;-128.00;-1.00;-1.00;101870;1265;1012416;-47
2023/03/05 06:58:58;;;;;;;1.00;0.20;;;;;;;-128.00;-1.00;-1.00;101598;1267;1003636;-45
2023/03/05 07:01:32;;;;;;;0.80;0.20;;;;;;;-128.00;-1.00;-1.00;101677;1270;1013990;-46
2023/03/05 07:04:01;;;;;;;0.70;0.20;;;;;;;-128.00;-1.00;-1.00;101696;1270;1010440;-45
2023/03/05 07:06:34;;;;;;;2.10;0.20;;;;;;;-128.00;-1.00;-1.00;101572;1270;1010814;-49
2023/03/05 07:09:02;;;;;;;0.50;0.10;;;;;;;-128.00;-1.00;-1.00;102115;1261;1012827;-47
2023/03/05 07:11:31;;;;;;;1.20;0.10;;;;;;;-128.00;-1.00;-1.00;102379;1261;1012479;-48
2023/03/05 07:13:59;;;;;;;0.20;0.10;;;;;;;-128.00;-1.00;-1.00;102130;1263;1012761;-46
2023/03/05 07:16:30;;;;;;;0.60;0.10;;;;;;;-128.00;-1.00;-1.00;102098;1260;1010104;-48
2023/03/05 07:18:59;;;;;;;1.40;0.20;;;;;;;-128.00;-1.00;-1.00;102181;1261;1011492;-48
2023/03/05 07:21:28;;;;;;;1.10;0.20;;;;;;;-128.00;-1.00;-1.00;102391;1262;1013661;-48
2023/03/05 07:24:00;;;;;;;0.60;0.20;;;;;;;-128.00;-1.00;-1.00;101967;1259;1012964;-48
2023/03/05 07:26:29;;;;;;;0.40;0.20;;;;;;;-128.00;-1.00;-1.00;102099;1262;1013355;-45
2023/03/05 07:28:58;;;;;;;0.40;0.20;;;;;;;-128.00;-1.00;-1.00;102361;1261;1010610;-47
2023/03/05 07:31:29;;;;;;;0.20;0.10;;;;;;;-128.00;-1.00;-1.00;102874;1259;1010255;-48
2023/03/05 07:33:59;;;;;;;0.30;0.10;;;;;;;-128.00;-1.00;-1.00;102920;1259;1013757;-45
2023/03/05 07:36:33;;;;;;;0.10;0.10;;;;;;;-128.00;-1.00;-1.00;102329;1259;1012742;-49
2023/03/05 07:39:03;;;;;;;0.50;0.10;;;;;;;-128.00;-1.00;-1.00;102271;1261;1012560;-48
2023/03/05 07:41:32;;;;;;;0.50;0.10;;;;;;;-128.00;-1.00;-1.00;101866;1259;1010354;-46
2023/03/05 07:44:00;;;;;;;2.90;0.10;;;;;;;-128.00;-1.00;-1.00;101976;1259;1013638;-48
2023/03/05 07:46:30;;;;;;;2.30;1.00;;;;;;;-128.00;-1.00;-1.00;101932;1259;1013917;-48
2023/03/05 07:48:58;;;;;;;0.10;0.00;;;;;;;-128.00;-1.00;-1.00;103010;1262;1011876;-50
2023/03/05 07:51:27;;;;;;;0.70;0.10;;;;;;;-128.00;-1.00;-1.00;102274;1261;1012662;-47
2023/03/05 07:53:56;;;;;;;0.40;0.10;;;;;;;-128.00;-1.00;-1.00;102623;1262;1009995;-48
2023/03/05 07:56:33;;;;;;;1.70;0.10;;;;;;;-128.00;-1.00;-1.00;102392;1259;1010881;-46
2023/03/05 07:59:06;;;;;;;1.50;0.10;;;;;;;-128.00;-1.00;-1.00;102282;1259;1012833;-45
2023/03/05 08:01:34;;;;;;;1.00;0.20;;;;;;;-128.00;-1.00;-1.00;102180;1261;1013316;-47
2023/03/05 08:04:03;;;;;;;0.50;0.10;;;;;;;-128.00;-1.00;-1.00;102086;1258;1012767;-47
2023/03/05 08:06:33;;;;;;;0.10;0.10;;;;;;;-128.00;-1.00;-1.00;102000;1259;1010607;-48
2023/03/05 08:09:01;;;;;;;1.00;0.10;;;;;;;-128.00;-1.00;-1.00;102255;1262;1002742;-50
2023/03/05 08:11:36;;;;;;;1.50;0.20;;;;;;;-128.00;-1.00;-1.00;102071;1262;1012669;-50
2023/03/05 08:14:04;;;;;;;0.80;0.20;;;;;;;-128.00;-1.00;-1.00;102016;1259;1003657;-49
2023/03/05 08:16:32;;;;;;;0.80;0.20;;;;;;;-128.00;-1.00;-1.00;102085;1261;1002593;-51
2023/03/05 08:19:00;;;;;;;0.40;0.20;;;;;;;-128.00;-1.00;-1.00;102958;1253;1002995;-50
2023/03/05 08:21:32;;;;;;;0.80;0.20;;;;;;;-128.00;-1.00;-1.00;102716;1257;1011359;-50
2023/03/05 08:24:05;;;;;;;0.40;0.20;;;;;;;-128.00;-1.00;-1.00;103463;1253;1013278;-50
2023/03/05 08:26:37;;;;;;;0.50;0.10;;;;;;;-128.00;-1.00;-1.00;102472;1257;1012350;-50
2023/03/05 08:29:06;;;;;;;0.70;0.20;;;;;;;-128.00;-1.00;-1.00;102484;1257;1012936;-48
2023/03/05 08:31:34;;;;;;;0.70;0.20;;;;;;;-128.00;-1.00;-1.00;102320;1253;1009660;-49
2023/03/05 08:34:02;;;;;;;1.30;0.20;;;;;;;-128.00;-1.00;-1.00;102259;1253;1011969;-48
2023/03/05 08:36:30;;;;;;;2.10;0.20;;;;;;;-128.00;-1.00;-1.00;102272;1253;1016366;-48
2023/03/05 08:38:59;;;;;;;0.30;0.20;;;;;;;-128.00;-1.00;-1.00;103901;1254;1011990;-52
2023/03/05 08:41:27;;;;;;;0.40;0.10;;;;;;;-128.00;-1.00;-1.00;102471;1253;1012925;-48
2023/03/05 08:43:56;;;;;;;0.90;0.80;;;;;;;-128.00;-1.00;-1.00;103439;1253;1010545;-48
2023/03/05 08:46:24;;;;;;;0.80;0.10;;;;;;;-128.00;-1.00;-1.00;101795;1253;1016514;-49
2023/03/05 08:48:52;;;;;;;0.50;0.10;;;;;;;-128.00;-1.00;-1.00;102164;1253;1003818;-49
2023/03/05 08:51:24;;;;;;;0.60;0.20;;;;;;;-128.00;-1.00;-1.00;102754;1258;1003235;-51
2023/03/05 08:53:53;;;;;;;0.80;0.20;;;;;;;-128.00;-1.00;-1.00;102543;1256;1013373;-49
2023/03/05 08:56:25;;;;;;;0.30;0.10;;;;;;;-128.00;-1.00;-1.00;102187;1257;1011086;-49
2023/03/05 08:58:53;;;;;;;0.90;0.00;;;;;;;-128.00;-1.00;-1.00;102287;1253;1010824;-49
2023/03/05 09:01:22;;;;;;;1.80;0.20;;;;;;;-128.00;-1.00;-1.00;103698;1253;1002878;-50
2023/03/05 09:03:50;;;;;;;0.80;0.20;;;;;;;-128.00;-1.00;-1.00;102913;1255;1012853;-47
2023/03/05 09:06:19;;;;;;;0.40;0.20;;;;;;;-128.00;-1.00;-1.00;102693;1256;1012760;-49
2023/03/05 09:08:49;;;;;;;0.40;0.20;;;;;;;-128.00;-1.00;-1.00;102347;1253;1010969;-50
2023/03/05 09:11:17;;;;;;;0.60;0.10;;;;;;;-128.00;-1.00;-1.00;102803;1255;1011157;-50
2023/03/05 09:13:45;;;;;;;0.40;0.10;;;;;;;-128.00;-1.00;-1.00;102433;1253;1013288;-51
2023/03/05 09:16:15;;;;;;;1.50;0.10;;;;;;;-128.00;-1.00;-1.00;102608;1253;1013183;-51
2023/03/05 09:18:44;;;;;;;0.30;0.10;;;;;;;-128.00;-1.00;-1.00;104002;1255;1012773;-50
2023/03/05 09:21:13;;;;;;;0.60;0.10;;;;;;;-128.00;-1.00;-1.00;102401;1255;1002701;-51
2023/03/05 09:23:42;;;;;;;0.50;0.20;;;;;;;-128.00;-1.00;-1.00;102392;1253;1013945;-49
2023/03/05 09:26:11;;;;;;;0.70;0.20;;;;;;;-128.00;-1.00;-1.00;102390;1256;1013690;-48
2023/03/05 09:28:39;;;;;;;0.60;0.20;;;;;;;-128.00;-1.00;-1.00;102948;1254;1013099;-51
2023/03/05 09:31:08;;;;;;;0.40;0.20;;;;;;;-128.00;-1.00;-1.00;103430;1256;1015712;-48
2023/03/05 09:33:36;;;;;;;0.80;0.10;;;;;;;-128.00;-1.00;-1.00;103277;1256;1010067;-49
2023/03/05 09:36:04;;;;;;;0.30;0.10;;;;;;;-128.00;-1.00;-1.00;102488;1253;1002798;-50
2023/03/05 09:38:35;;;;;;;0.30;0.10;;;;;;;-128.00;-1.00;-1.00;102599;1255;1013647;-49
2023/03/05 09:41:33;;;;;;;0.30;0.10;;;;;;;-128.00;-1.00;-1.00;101916;1253;1012688;-50
2023/03/05 09:44:50;;;;;;;0.40;0.10;;;;;;;-128.00;-1.00;-1.00;102653;1257;1013720;-47
2023/03/05 09:47:36;;;;;;;0.90;0.10;;;;;;;-128.00;-1.00;-1.00;101954;1260;1010825;-50
2023/03/05 09:50:30;;;;;;;0.30;0.10;;;;;;;-128.00;-1.00;-1.00;102245;1254;1011282;-50
2023/03/05 09:53:34;;;;;;;0.70;0.10;;;;;;;-128.00;-1.00;-1.00;102416;1255;1012870;-49
2023/03/05 09:56:04;;;;;;;0.30;0.10;;;;;;;-128.00;-1.00;-1.00;102473;1256;1012930;-49
2023/03/05 09:58:45;;;;;;;1.10;0.20;;;;;;;-128.00;-1.00;-1.00;102439;1253;1013042;-49
2023/03/05 10:01:28;;;;;;;1.40;0.20;;;;;;;-128.00;-1.00;-1.00;102486;1253;1010602;-50
2023/03/05 10:04:20;;;;;;;1.40;0.20;;;;;;;-128.00;-1.00;-1.00;102324;1253;1011231;-51
2023/03/05 10:06:54;;;;;;;0.50;0.20;;;;;;;-128.00;-1.00;-1.00;102508;1258;1013207;-50
2023/03/05 10:09:29;;;;;;;1.10;0.20;;;;;;;-128.00;-1.00;-1.00;102282;1261;1013640;-50
2023/03/05 10:12:13;;;;;;;0.70;0.20;;;;;;;-128.00;-1.00;-1.00;102613;1257;1012876;-50
2023/03/05 10:14:41;;;;;;;0.20;0.10;;;;;;;-128.00;-1.00;-1.00;102190;1259;1010243;-51
2023/03/05 10:17:35;;;;;;;0.70;0.10;;;;;;;-128.00;-1.00;-1.00;104052;1257;1002682;-51
2023/03/05 10:20:06;;;;;;;0.60;0.20;;;;;;;-128.00;-1.00;-1.00;102419;1258;1013356;-50
2023/03/05 10:22:47;;;;;;;0.30;0.10;;;;;;;-128.00;-1.00;-1.00;102927;1256;1012527;-50
2023/03/05 10:25:49;;;;;;;1.00;0.20;;;;;;;-128.00;-1.00;-1.00;102403;1254;1012981;-50
2023/03/05 10:28:26;;;;;;;0.60;0.10;;;;;;;-128.00;-1.00;-1.00;102499;1257;1010801;-49
2023/03/05 10:31:23;;;;;;;1.90;0.30;;;;;;;-128.00;-1.00;-1.00;102409;1256;1011337;-49
2023/03/05 10:34:09;;;;;;;1.70;0.20;;;;;;;-128.00;-1.00;-1.00;102738;1253;1014057;-49
2023/03/05 10:37:15;;;;;;;0.60;0.20;;;;;;;-128.00;-1.00;-1.00;102047;1253;1012313;-49
2023/03/05 10:40:08;;;;;;;0.30;0.10;;;;;;;-128.00;-1.00;-1.00;104076;1257;1013481;-50
2023/03/05 10:42:41;;;;;;;2.30;0.20;;;;;;;-128.00;-1.00;-1.00;103496;1253;1010393;-50
2023/03/05 10:45:30;;;;;;;0.40;0.20;;;;;;;-128.00;-1.00;-1.00;102326;1257;1012232;-49
2023/03/05 10:48:23;;;;;;;0.30;0.10;;;;;;;-128.00;-1.00;-1.00;102169;1253;1013254;-49
2023/03/05 10:50:59;;;;;;;0.50;0.20;;;;;;;-128.00;-1.00;-1.00;102184;1257;1012883;-50
2023/03/05 10:53:38;;;;;;;2.70;0.30;;;;;;;-128.00;-1.00;-1.00;102154;1258;1013218;-50
2023/03/05 10:56:08;;;;;;;0.80;0.30;;;;;;;-128.00;-1.00;-1.00;102403;1255;1010610;-49
2023/03/05 10:58:36;;;;;;;0.80;0.20;;;;;;;-128.00;-1.00;-1.00;102256;1259;1012036;-50
2023/03/05 11:01:11;;;;;;;0.50;0.20;;;;;;;-128.00;-1.00;-1.00;102419;1257;1004785;-50
2023/03/05 11:03:50;;;;;;;0.70;0.30;;;;;;;-128.00;-1.00;-1.00;103169;1253;1012300;-50
2023/03/05 11:06:47;;;;;;;1.10;0.20;;;;;;;-128.00;-1.00;-1.00;102786;1257;1012949;-49
2023/03/05 11:09:31;;;;;;;1.10;0.50;;;;;;;-128.00;-1.00;-1.00;102219;1254;1010286;-51
2023/03/05 11:12:15;;;;;;;0.50;0.20;;;;;;;-128.00;-1.00;-1.00;102520;1253;1010666;-49
2023/03/05 11:15:04;;;;;;;0.90;0.30;;;;;;;-128.00;-1.00;-1.00;102292;1258;1015865;-50
2023/03/05 11:17:43;;;;;;;0.40;0.10;;;;;;;-128.00;-1.00;-1.00;102341;1256;1013160;-49
2023/03/05 11:20:32;;;;;;;1.60;0.20;;;;;;;-128.00;-1.00;-1.00;105512;1258;1013085;-50
2023/03/05 11:23:16;;;;;;;0.30;0.10;;;;;;;-128.00;-1.00;-1.00;102080;1256;1011121;-49
2023/03/05 11:26:02;;;;;;;2.90;0.20;;;;;;;-128.00;-1.00;-1.00;102258;1255;1011012;-50
2023/03/05 11:28:55;;;;;;;0.30;0.20;;;;;;;-128.00;-1.00;-1.00;102244;1257;1013004;-50
2023/03/05 11:31:26;;;;;;;0.30;0.10;;;;;;;-128.00;-1.00;-1.00;102829;1257;1012442;-50
2023/03/05 11:34:29;;;;;;;0.40;0.20;;;;;;;-128.00;-1.00;-1.00;102380;1256;1013141;-52
2023/03/05 11:37:02;;;;;;;0.50;0.10;;;;;;;-128.00;-1.00;-1.00;102088;1256;1011511;-52
2023/03/05 11:39:34;;;;;;;3.60;0.20;;;;;;;-128.00;-1.00;-1.00;102431;1253;1010645;-49